createdAt,value
2017-09-28T00:00:20.392Z,84.60
2017-09-28T00:02:52.109Z,84.60
2017-09-28T00:05:22.279Z,84.90
2017-09-28T00:07:52.176Z,84.90
2017-09-28T00:10:21.959Z,85.00
2017-09-28T00:12:52.189Z,85.20
2017-09-28T00:15:22.940Z,85.30
2017-09-28T00:17:53.752Z,85.80
2017-09-28T00:20:23.740Z,85.70
2017-09-28T00:22:53.948Z,85.90
2017-09-28T00:25:23.755Z,86.10
2017-09-28T00:27:54.947Z,86.30
2017-09-28T00:30:24.884Z,86.20
2017-09-28T00:32:54.724Z,86.10
2017-09-28T00:35:24.513Z,86.90
2017-09-28T00:37:54.346Z,86.20
2017-09-28T00:40:24.251Z,86.00
2017-09-28T00:42:54.177Z,85.90
2017-09-28T00:45:24.622Z,85.80
2017-09-28T00:47:54.993Z,85.80
2017-09-28T00:50:26.097Z,86.00
2017-09-28T00:52:56.428Z,86.00
2017-09-28T00:55:27.833Z,86.20
2017-09-28T00:57:57.658Z,86.10
2017-09-28T01:00:28.939Z,86.20
2017-09-28T01:02:58.703Z,86.20
2017-09-28T01:05:28.667Z,86.40
2017-09-28T01:07:59.175Z,86.50
2017-09-28T01:10:29.517Z,86.40
2017-09-28T01:13:00.081Z,86.60
2017-09-28T01:15:29.917Z,86.60
2017-09-28T01:18:00.484Z,86.70
2017-09-28T01:20:31.096Z,86.20
2017-09-28T01:23:00.908Z,86.50
2017-09-28T01:25:30.920Z,86.70
2017-09-28T01:28:07.063Z,86.60
2017-09-28T01:30:36.926Z,86.70
2017-09-28T01:33:06.676Z,86.60
2017-09-28T01:35:36.720Z,86.70
2017-09-28T01:38:06.422Z,86.80
2017-09-28T01:40:36.835Z,86.90
2017-09-28T01:43:06.623Z,87.00
2017-09-28T01:45:36.843Z,87.00
2017-09-28T01:48:44.560Z,87.00
2017-09-28T01:51:15.088Z,87.10
2017-09-28T01:53:45.363Z,87.20
2017-09-28T01:56:15.734Z,87.10
2017-09-28T01:58:45.301Z,87.20
2017-09-28T02:01:15.091Z,87.10
2017-09-28T02:03:44.892Z,87.00
2017-09-28T02:06:14.711Z,87.10
2017-09-28T02:08:44.611Z,87.00
2017-09-28T02:11:14.569Z,86.90
2017-09-28T02:13:45.050Z,86.80
2017-09-28T02:16:14.842Z,86.70
2017-09-28T02:18:44.548Z,86.70
2017-09-28T02:21:14.261Z,87.40
2017-09-28T02:23:43.957Z,86.70
2017-09-28T02:26:14.517Z,86.50
2017-09-28T02:28:44.259Z,86.50
2017-09-28T02:31:15.649Z,86.40
2017-09-28T02:33:45.871Z,86.30
2017-09-28T02:36:16.296Z,86.30
2017-09-28T02:38:45.919Z,86.20
2017-09-28T02:41:15.620Z,86.90
2017-09-28T02:43:45.284Z,86.00
2017-09-28T02:46:15.869Z,85.90
2017-09-28T02:48:45.646Z,85.80
2017-09-28T02:51:16.205Z,85.60
2017-09-28T02:53:46.160Z,85.60
2017-09-28T02:56:16.078Z,85.40
2017-09-28T02:58:46.521Z,85.30
2017-09-28T03:01:16.271Z,85.70
2017-09-28T03:03:45.957Z,85.20
2017-09-28T03:06:16.775Z,85.10
2017-09-28T03:08:46.929Z,85.10
2017-09-28T03:11:17.663Z,85.30
2017-09-28T03:13:47.309Z,85.20
2017-09-28T03:16:17.092Z,85.20
2017-09-28T03:18:46.784Z,85.30
2017-09-28T03:21:16.807Z,85.30
2017-09-28T03:23:46.410Z,85.40
2017-09-28T03:26:16.726Z,85.40
2017-09-28T03:28:46.502Z,85.30
2017-09-28T03:31:16.112Z,85.30
2017-09-28T03:33:46.182Z,85.30
2017-09-28T03:36:16.046Z,85.40
2017-09-28T03:38:45.756Z,85.60
2017-09-28T03:41:15.334Z,86.40
2017-09-28T03:43:44.965Z,85.90
2017-09-28T03:46:14.639Z,86.10
2017-09-28T03:48:44.338Z,86.10
2017-09-28T03:51:14.198Z,86.20
2017-09-28T03:53:43.996Z,86.40
2017-09-28T03:56:13.739Z,86.40
2017-09-28T03:58:43.396Z,86.40
2017-09-28T04:01:13.163Z,86.40
2017-09-28T04:03:42.694Z,86.40
2017-09-28T04:06:13.089Z,86.40
2017-09-28T04:08:42.722Z,86.40
2017-09-28T04:11:12.421Z,86.50
2017-09-28T04:13:42.593Z,86.30
2017-09-28T04:16:12.400Z,86.30
2017-09-28T04:18:42.562Z,86.30
2017-09-28T04:21:12.304Z,86.40
2017-09-28T04:23:42.499Z,86.30
2017-09-28T04:26:12.548Z,86.30
2017-09-28T04:28:42.430Z,86.30
2017-09-28T04:31:12.025Z,86.20
2017-09-28T04:33:41.529Z,85.90
2017-09-28T04:36:11.578Z,85.60
2017-09-28T04:38:41.973Z,85.70
2017-09-28T04:41:12.574Z,85.70
2017-09-28T04:43:42.287Z,85.70
2017-09-28T04:46:12.457Z,85.70
2017-09-28T04:48:42.920Z,85.80
2017-09-28T04:51:12.551Z,85.60
2017-09-28T04:53:42.978Z,85.50
2017-09-28T04:56:12.994Z,85.60
2017-09-28T04:58:44.231Z,85.80
2017-09-28T05:01:14.135Z,85.80
2017-09-28T05:03:45.191Z,85.70
2017-09-28T05:06:14.947Z,85.90
2017-09-28T05:08:45.425Z,86.20
2017-09-28T05:11:15.588Z,86.10
2017-09-28T05:13:45.399Z,86.30
2017-09-28T05:16:16.006Z,86.10
2017-09-28T05:18:45.884Z,86.00
2017-09-28T05:21:18.431Z,86.00
2017-09-28T05:23:48.482Z,86.00
2017-09-28T05:26:18.986Z,86.10
2017-09-28T05:28:56.583Z,86.10
2017-09-28T05:31:27.253Z,86.00
2017-09-28T05:33:56.945Z,85.90
2017-09-28T05:36:26.893Z,86.00
2017-09-28T05:38:56.543Z,85.80
2017-09-28T05:41:27.290Z,86.00
2017-09-28T05:43:57.696Z,85.90
2017-09-28T05:46:28.363Z,85.80
2017-09-28T05:48:58.281Z,85.80
2017-09-28T05:51:27.911Z,85.80
2017-09-28T05:53:57.731Z,85.80
2017-09-28T05:57:11.242Z,85.40
2017-09-28T05:59:44.571Z,85.20
2017-09-28T06:02:14.267Z,85.20
2017-09-28T06:04:44.342Z,85.20
2017-09-28T06:07:15.273Z,85.00
2017-09-28T06:09:46.064Z,84.90
2017-09-28T06:12:15.774Z,84.90
2017-09-28T06:14:45.531Z,84.80
2017-09-28T06:17:16.086Z,84.40
2017-09-28T06:19:47.022Z,84.40
2017-09-28T06:22:16.717Z,84.30
2017-09-28T06:24:47.303Z,84.20
2017-09-28T06:27:16.979Z,84.10
2017-09-28T06:29:46.901Z,84.00
2017-09-28T06:32:16.523Z,83.80
2017-09-28T06:34:46.234Z,83.60
2017-09-28T06:37:16.405Z,83.50
2017-09-28T06:39:49.620Z,83.20
2017-09-28T06:42:19.392Z,83.20
2017-09-28T06:44:49.135Z,82.80
2017-09-28T06:47:19.613Z,82.70
2017-09-28T06:49:49.556Z,82.80
2017-09-28T06:52:19.210Z,82.90
2017-09-28T06:54:48.954Z,82.80
2017-09-28T06:57:19.776Z,82.70
2017-09-28T06:59:50.263Z,82.60
2017-09-28T07:02:20.192Z,82.80
2017-09-28T07:04:50.258Z,82.90
2017-09-28T07:07:19.984Z,82.90
2017-09-28T07:09:49.756Z,82.80
2017-09-28T07:12:19.769Z,82.80
2017-09-28T07:14:49.554Z,82.80
2017-09-28T07:17:19.182Z,82.90
2017-09-28T07:19:49.172Z,82.70
2017-09-28T07:22:19.169Z,82.70
2017-09-28T07:24:52.810Z,82.60
2017-09-28T07:27:22.597Z,82.50
2017-09-28T07:29:53.059Z,82.90
2017-09-28T07:32:22.923Z,82.90
2017-09-28T07:34:52.896Z,82.60
2017-09-28T07:37:22.638Z,82.40
2017-09-28T07:39:54.022Z,82.20
2017-09-28T07:42:24.974Z,82.20
2017-09-28T07:44:54.755Z,82.10
2017-09-28T07:47:25.745Z,81.40
2017-09-28T07:49:55.858Z,81.40
2017-09-28T07:52:26.159Z,81.10
2017-09-28T07:54:57.013Z,79.60
2017-09-28T07:57:26.857Z,79.60
2017-09-28T07:59:56.807Z,78.70
2017-09-28T08:02:28.335Z,77.90
2017-09-28T08:04:58.125Z,77.90
2017-09-28T08:07:27.840Z,76.80
2017-09-28T08:09:59.422Z,76.80
2017-09-28T08:12:30.118Z,76.30
2017-09-28T08:15:00.025Z,76.20
2017-09-28T08:17:29.823Z,75.80
2017-09-28T08:19:59.623Z,76.10
2017-09-28T08:22:29.392Z,76.70
2017-09-28T08:24:59.491Z,77.10
2017-09-28T08:27:29.167Z,76.70
2017-09-28T08:30:01.648Z,76.90
2017-09-28T08:32:32.490Z,76.40
2017-09-28T08:35:02.663Z,76.50
2017-09-28T08:37:32.329Z,76.20
2017-09-28T08:40:02.731Z,76.10
2017-09-28T08:42:32.330Z,76.20
2017-09-28T08:45:02.752Z,76.00
2017-09-28T08:47:33.398Z,76.20
2017-09-28T08:50:03.859Z,76.70
2017-09-28T08:52:33.750Z,76.70
2017-09-28T08:55:03.847Z,77.30
2017-09-28T08:57:34.407Z,77.30
2017-09-28T09:00:04.595Z,77.20
2017-09-28T09:02:34.858Z,76.10
2017-09-28T09:05:05.165Z,75.10
2017-09-28T09:07:35.059Z,73.70
2017-09-28T09:10:05.893Z,71.40
2017-09-28T09:12:36.442Z,72.00
2017-09-28T09:15:06.557Z,71.90
2017-09-28T09:17:37.497Z,70.80
2017-09-28T09:20:08.463Z,71.60
2017-09-28T09:22:39.166Z,71.60
2017-09-28T09:25:09.567Z,72.40
2017-09-28T09:27:39.233Z,73.20
2017-09-28T09:30:10.230Z,72.70
2017-09-28T09:32:41.050Z,72.00
2017-09-28T09:35:11.376Z,71.80
2017-09-28T09:37:42.775Z,71.00
2017-09-28T09:40:14.161Z,67.60
2017-09-28T09:42:46.062Z,66.20
2017-09-28T09:45:20.381Z,66.10
2017-09-28T09:47:50.322Z,66.10
2017-09-28T09:50:21.210Z,65.80
2017-09-28T09:52:52.783Z,67.40
2017-09-28T09:55:30.202Z,67.20
2017-09-28T09:58:02.658Z,63.90
2017-09-28T10:00:41.757Z,61.30
2017-09-28T10:03:14.820Z,61.10
2017-09-28T10:05:45.496Z,61.20
2017-09-28T10:08:22.981Z,61.60
2017-09-28T10:11:07.190Z,63.50
2017-09-28T10:13:53.220Z,64.40
2017-09-28T10:16:24.068Z,63.80
2017-09-28T10:18:54.583Z,61.50
2017-09-28T10:21:25.499Z,60.40
2017-09-28T10:23:55.247Z,59.00
2017-09-28T10:26:28.543Z,60.20
2017-09-28T10:28:59.370Z,62.50
2017-09-28T10:31:30.821Z,62.50
2017-09-28T10:34:00.821Z,63.50
2017-09-28T10:36:32.084Z,63.60
2017-09-28T10:39:02.620Z,63.60
2017-09-28T10:41:33.825Z,64.40
2017-09-28T10:44:04.076Z,64.40
2017-09-28T10:46:36.336Z,64.70
2017-09-28T10:49:06.627Z,64.70
2017-09-28T10:51:37.116Z,64.70
2017-09-28T10:54:08.483Z,66.90
2017-09-28T10:56:38.620Z,66.80
2017-09-28T10:59:08.767Z,67.70
2017-09-28T11:01:39.076Z,67.60
2017-09-28T11:04:09.005Z,67.00
2017-09-28T11:06:39.015Z,67.00
2017-09-28T11:09:09.011Z,66.20
2017-09-28T11:11:38.965Z,66.20
2017-09-28T11:14:08.926Z,67.00
2017-09-28T11:16:38.998Z,67.50
2017-09-28T11:19:09.938Z,66.30
2017-09-28T11:21:40.082Z,65.40
2017-09-28T11:24:20.627Z,64.90
2017-09-28T11:26:51.195Z,64.10
2017-09-28T11:29:31.791Z,63.80
2017-09-28T11:32:04.941Z,63.90
2017-09-28T11:34:36.270Z,62.40
2017-09-28T11:37:10.096Z,62.40
2017-09-28T11:39:41.527Z,62.80
2017-09-28T11:42:12.559Z,62.80
2017-09-28T11:44:42.583Z,62.80
2017-09-28T11:47:12.527Z,63.70
2017-09-28T11:49:42.713Z,64.40
2017-09-28T11:52:13.575Z,64.80
2017-09-28T11:55:21.357Z,65.00
2017-09-28T11:57:55.083Z,65.00
2017-09-28T12:00:26.014Z,65.30
2017-09-28T12:02:56.655Z,65.10
2017-09-28T12:05:29.332Z,65.00
2017-09-28T12:10:56.639Z,64.10
2017-09-28T12:13:28.941Z,63.20
2017-09-28T12:16:02.511Z,62.30
2017-09-28T12:18:32.830Z,61.30
2017-09-28T12:21:04.424Z,61.00
2017-09-28T12:23:34.660Z,59.90
2017-09-28T12:26:05.617Z,58.20
2017-09-28T12:28:36.849Z,58.20
2017-09-28T12:31:18.362Z,58.00
2017-09-28T12:33:49.251Z,58.60
2017-09-28T12:36:20.807Z,59.30
2017-09-28T12:38:51.143Z,60.70
2017-09-28T12:41:21.346Z,61.10
2017-09-28T12:43:51.940Z,60.80
2017-09-28T12:46:23.887Z,60.50
2017-09-28T12:48:55.689Z,60.00
2017-09-28T12:51:25.695Z,60.00
2017-09-28T12:53:55.968Z,59.50
2017-09-28T12:56:28.049Z,59.50
2017-09-28T12:59:00.432Z,60.10
2017-09-28T13:01:30.978Z,60.50
2017-09-28T13:04:01.960Z,60.00
2017-09-28T13:06:35.784Z,59.90
2017-09-28T13:09:08.530Z,59.70
2017-09-28T13:11:39.363Z,56.90
2017-09-28T13:14:14.702Z,56.90
2017-09-28T13:16:44.989Z,57.00
2017-09-28T13:22:48.222Z,57.90
2017-09-28T13:25:18.685Z,58.00
2017-09-28T13:27:49.383Z,59.20
2017-09-28T13:30:19.694Z,58.00
2017-09-28T13:32:48.803Z,58.10
2017-09-28T13:35:19.123Z,57.70
2017-09-28T13:37:49.457Z,57.30
2017-09-28T13:40:20.868Z,57.60
2017-09-28T13:42:54.799Z,56.90
2017-09-28T13:45:25.998Z,56.90
2017-09-28T13:47:57.522Z,57.40
2017-09-28T13:50:27.510Z,57.10
2017-09-28T13:52:57.948Z,54.10
2017-09-28T13:55:28.648Z,54.00
2017-09-28T13:57:58.648Z,55.40
2017-09-28T14:00:28.251Z,54.90
2017-09-28T14:02:57.398Z,56.10
2017-09-28T14:05:28.533Z,56.00
2017-09-28T14:08:01.178Z,58.10
2017-09-28T14:10:31.082Z,58.00
2017-09-28T14:13:02.750Z,58.60
2017-09-28T14:15:33.418Z,58.60
2017-09-28T14:18:03.628Z,58.90
2017-09-28T14:20:43.703Z,58.00
2017-09-28T14:23:17.793Z,58.00
2017-09-28T14:25:48.169Z,58.30
2017-09-28T14:28:17.985Z,58.00
2017-09-28T14:30:47.597Z,58.20
2017-09-28T14:33:17.620Z,58.80
2017-09-28T14:35:47.917Z,58.80
2017-09-28T14:38:17.530Z,59.20
2017-09-28T14:40:47.775Z,59.90
2017-09-28T14:43:17.078Z,59.90
2017-09-28T14:45:46.541Z,59.80
2017-09-28T14:48:16.003Z,59.60
2017-09-28T14:50:46.485Z,59.80
2017-09-28T14:53:15.742Z,59.70
2017-09-28T14:55:44.829Z,59.70
2017-09-28T14:58:14.517Z,60.00
2017-09-28T15:00:44.396Z,60.20
2017-09-28T15:03:13.839Z,60.10
2017-09-28T15:05:43.237Z,61.30
2017-09-28T15:08:12.460Z,62.00
2017-09-28T15:10:42.196Z,62.20
2017-09-28T15:13:16.787Z,62.30
2017-09-28T15:15:46.821Z,62.60
2017-09-28T15:18:16.955Z,63.20
2017-09-28T15:20:47.858Z,63.60
2017-09-28T15:23:21.921Z,65.60
2017-09-28T15:25:51.305Z,65.50
2017-09-28T15:28:21.663Z,66.10
2017-09-28T15:30:51.254Z,66.60
2017-09-28T15:33:20.733Z,67.10
2017-09-28T15:35:50.930Z,67.20
2017-09-28T15:38:20.350Z,67.20
2017-09-28T15:40:49.708Z,67.20
2017-09-28T15:43:23.292Z,66.80
2017-09-28T15:45:52.948Z,67.10
2017-09-28T15:48:22.338Z,68.20
2017-09-28T15:50:55.093Z,70.40
2017-09-28T15:53:29.294Z,70.40
2017-09-28T15:56:00.248Z,72.60
2017-09-28T15:58:33.869Z,72.50
2017-09-28T16:01:05.464Z,70.50
2017-09-28T16:03:36.743Z,69.80
2017-09-28T16:06:08.462Z,69.50
2017-09-28T16:08:38.001Z,69.50
2017-09-28T16:11:08.043Z,69.80
2017-09-28T16:13:39.203Z,69.60
2017-09-28T16:16:09.842Z,69.60
2017-09-28T16:18:41.546Z,69.50
2017-09-28T16:21:11.726Z,69.50
2017-09-28T16:23:42.666Z,69.60
2017-09-28T16:26:12.219Z,70.10
2017-09-28T16:28:41.745Z,70.60
2017-09-28T16:31:11.557Z,71.00
2017-09-28T16:33:44.341Z,71.50
2017-09-28T16:36:35.064Z,71.40
2017-09-28T16:39:14.509Z,71.60
2017-09-28T16:41:48.889Z,71.60
2017-09-28T16:44:26.104Z,71.50
2017-09-28T16:47:00.733Z,71.50
2017-09-28T16:52:22.904Z,71.80
2017-09-28T16:57:47.510Z,71.90
2017-09-28T17:00:20.469Z,72.20
2017-09-28T17:03:13.175Z,72.30
2017-09-28T17:06:11.764Z,72.30
2017-09-28T17:08:59.755Z,71.90
2017-09-28T17:15:14.323Z,71.30
2017-09-28T17:19:32.191Z,70.90
2017-09-28T17:22:13.418Z,70.90
2017-09-28T17:24:56.004Z,69.70
2017-09-28T17:27:43.824Z,69.60
2017-09-28T17:30:48.867Z,68.70
2017-09-28T17:33:22.769Z,68.90
2017-09-28T17:36:10.777Z,68.60
2017-09-28T17:38:51.387Z,68.70
2017-09-28T17:41:22.674Z,68.50
2017-09-28T17:44:09.374Z,68.50
2017-09-28T17:50:08.230Z,68.10
2017-09-28T17:52:47.376Z,68.20
2017-09-28T17:55:33.597Z,67.60
2017-09-28T18:03:41.589Z,67.80
2017-09-28T18:09:13.952Z,70.40
2017-09-28T18:11:45.529Z,73.10
2017-09-28T18:14:24.244Z,73.10
2017-09-28T18:17:00.039Z,73.60
2017-09-28T18:19:36.785Z,73.80
2017-09-28T18:22:10.629Z,73.80
2017-09-28T18:24:43.483Z,72.30
2017-09-28T18:27:14.271Z,71.20
2017-09-28T18:30:22.748Z,74.50
2017-09-28T18:32:52.448Z,74.40
2017-09-28T18:36:01.956Z,82.10
2017-09-28T18:47:40.803Z,90.30
2017-09-28T18:50:12.125Z,91.60
2017-09-28T18:53:14.371Z,92.30
2017-09-28T18:55:44.742Z,92.30
2017-09-28T18:58:16.285Z,92.70
2017-09-28T19:00:46.394Z,92.60
2017-09-28T19:03:21.610Z,92.90
2017-09-28T19:05:52.842Z,92.50
2017-09-28T19:08:27.545Z,93.10
2017-09-28T19:10:58.747Z,92.90
2017-09-28T19:13:28.677Z,92.90
2017-09-28T19:16:01.581Z,93.00
2017-09-28T19:18:34.258Z,93.50
2017-09-28T19:21:04.936Z,93.40
2017-09-28T19:23:36.066Z,93.00
2017-09-28T19:27:37.789Z,93.80
2017-09-28T19:30:08.051Z,93.50
2017-09-28T19:32:46.701Z,93.80
2017-09-28T19:43:30.195Z,94.10
2017-09-28T19:46:17.507Z,94.10
2017-09-28T19:48:48.323Z,94.00
2017-09-28T19:51:18.043Z,93.90
2017-09-28T19:53:48.678Z,93.80
2017-09-28T19:56:24.455Z,93.90
2017-09-28T19:58:54.444Z,93.80
2017-09-28T20:01:23.983Z,93.70
2017-09-28T20:03:53.864Z,93.60
2017-09-28T20:06:24.529Z,93.90
2017-09-28T20:08:55.408Z,93.90
2017-09-28T20:11:25.572Z,93.90
2017-09-28T20:13:55.968Z,93.80
2017-09-28T20:16:27.053Z,93.60
2017-09-28T20:18:56.991Z,93.60
2017-09-28T20:21:26.633Z,93.60
2017-09-28T20:23:55.985Z,93.50
2017-09-28T20:26:26.026Z,93.10
2017-09-28T20:28:59.073Z,93.00
2017-09-28T20:31:34.688Z,93.10
2017-09-28T20:34:13.619Z,93.10
2017-09-28T20:36:49.355Z,93.50
2017-09-28T20:39:21.137Z,93.10
2017-09-28T20:42:00.459Z,92.80
2017-09-28T20:44:35.684Z,93.60
2017-09-28T20:47:18.663Z,93.70
2017-09-28T20:49:52.411Z,93.70
2017-09-28T20:52:23.069Z,93.50
2017-09-28T20:54:53.255Z,94.10
2017-09-28T20:57:24.619Z,93.80
2017-09-28T20:59:59.765Z,93.80
2017-09-28T21:02:38.298Z,93.50
2017-09-28T21:05:11.706Z,94.10
2017-09-28T21:07:42.335Z,93.90
2017-09-28T21:10:28.649Z,93.90
2017-09-28T21:13:01.709Z,93.50
2017-09-28T21:15:34.891Z,93.50
2017-09-28T21:18:08.720Z,93.40
2017-09-28T21:20:39.728Z,93.40
2017-09-28T21:23:13.559Z,93.70
2017-09-28T21:25:44.558Z,93.00
2017-09-28T21:28:25.683Z,93.40
2017-09-28T21:30:58.981Z,93.50
2017-09-28T21:33:29.503Z,93.50
2017-09-28T21:36:03.744Z,93.60
2017-09-28T21:38:34.876Z,93.60
2017-09-28T21:41:06.369Z,93.80
2017-09-28T21:43:36.306Z,93.80
2017-09-28T21:46:07.157Z,93.70
2017-09-28T21:48:37.396Z,93.70
2017-09-28T21:51:08.007Z,93.80
2017-09-28T21:53:37.469Z,93.70
2017-09-28T21:56:07.197Z,93.80
2017-09-28T21:58:39.902Z,93.80
2017-09-28T22:01:09.819Z,93.70
2017-09-28T22:03:40.659Z,94.10
2017-09-28T22:06:10.153Z,93.80
2017-09-28T22:08:40.230Z,94.00
2017-09-28T22:11:09.908Z,94.20
2017-09-28T22:13:51.644Z,94.50
2017-09-28T22:16:21.113Z,94.50
2017-09-28T22:18:53.831Z,94.70
2017-09-28T22:21:24.884Z,94.70
2017-09-28T22:23:54.179Z,94.70
2017-09-28T22:26:23.776Z,94.70
2017-09-28T22:28:53.962Z,95.00
2017-09-28T22:31:23.905Z,95.00
2017-09-28T22:33:54.085Z,94.80
2017-09-28T22:36:23.390Z,94.70
2017-09-28T22:38:52.645Z,94.70
2017-09-28T22:41:21.909Z,94.50
2017-09-28T22:43:51.345Z,94.70
2017-09-28T22:46:20.952Z,94.80
2017-09-28T22:48:50.551Z,94.90
2017-09-28T22:51:20.234Z,95.00
2017-09-28T22:53:50.532Z,95.30
2017-09-28T22:56:19.679Z,95.20
2017-09-28T22:58:49.278Z,95.30
2017-09-28T23:01:20.026Z,95.40
2017-09-28T23:03:50.962Z,94.70
2017-09-28T23:06:20.233Z,94.70
2017-09-28T23:08:49.621Z,94.60
2017-09-28T23:11:19.093Z,94.70
2017-09-28T23:13:48.345Z,94.70
2017-09-28T23:16:18.724Z,94.00
2017-09-28T23:18:48.147Z,93.90
2017-09-28T23:21:17.789Z,94.10
2017-09-28T23:23:47.808Z,94.10
2017-09-28T23:26:18.713Z,93.70
2017-09-28T23:28:53.069Z,93.40
2017-09-28T23:31:26.401Z,93.40
2017-09-28T23:33:58.441Z,93.30
2017-09-28T23:36:29.328Z,93.50
2017-09-28T23:39:04.733Z,93.60
2017-09-28T23:41:34.692Z,93.60
2017-09-28T23:44:04.794Z,93.00
2017-09-28T23:46:35.392Z,92.80
2017-09-28T23:49:05.447Z,92.80
2017-09-28T23:51:35.179Z,93.10
2017-09-28T23:54:05.405Z,93.30
2017-09-28T23:56:38.528Z,93.10
2017-09-28T23:59:11.011Z,93.30
